Time;durP1;ratioP1;P1;durP2;ratioP2;P2;SDS_P1;SDS_P2;PMS_P1;PMS_P2;Temp;Humidity;BMP_temperature;BMP_pressure;BME280_temperature;BME280_humidity;BME280_pressure;Samples;Min_cycle;Max_cycle;Signal;HPM_P1;HPM_P2
2023/01/30 00:08:07;;;;;;;2.75;2.13;;;;;;;22.05;36.80;102025.38;21086339;28;20044;-63
2023/01/30 00:18:09;;;;;;;3.70;2.08;;;;;;;22.04;37.00;102013.38;21085621;28;20040;-63
2023/01/30 00:28:10;;;;;;;2.22;2.03;;;;;;;22.04;36.81;102001.41;21085235;28;20387;-62
2023/01/30 00:38:12;;;;;;;2.60;2.40;;;;;;;22.02;36.98;102009.16;21084067;28;20047;-63
2023/01/30 00:48:19;;;;;;;2.72;2.03;;;;;;;21.91;36.98;102012.97;21081506;28;20048;-63
2023/01/30 00:58:22;;;;;;;2.83;2.28;;;;;;;21.97;36.72;102040.59;21082477;28;20495;-63
2023/01/30 01:08:23;;;;;;;2.75;2.13;;;;;;;21.95;37.24;102053.97;21081297;28;20488;-62
2023/01/30 01:18:28;;;;;;;2.80;2.08;;;;;;;21.80;36.92;102048.19;21080943;28;20067;-64
2023/01/30 01:28:29;;;;;;;2.40;2.20;;;;;;;21.93;37.04;102078.47;21080037;28;20043;-62
2023/01/30 01:38:34;;;;;;;3.35;2.20;;;;;;;21.82;36.94;102082.22;21079654;28;20036;-62
2023/01/30 01:48:45;;;;;;;1.90;1.80;;;;;;;21.87;36.77;102081.47;21078875;28;20499;-62
2023/01/30 01:59:00;;;;;;;2.47;2.28;;;;;;;21.85;36.93;102080.84;21077833;28;20069;-63
2023/01/30 02:09:05;;;;;;;2.63;2.40;;;;;;;21.83;36.76;102101.47;21077383;28;20052;-63
2023/01/30 02:19:28;;;;;;;2.40;2.20;;;;;;;21.79;36.80;102111.44;21077115;28;20043;-63
2023/01/30 02:29:38;;;;;;;2.83;2.45;;;;;;;21.79;36.84;102122.59;21076651;28;20044;-63
2023/01/30 02:40:06;;;;;;;3.05;2.50;;;;;;;21.78;36.63;102118.13;21076095;28;20055;-63
2023/01/30 02:50:20;;;;;;;2.90;2.30;;;;;;;21.73;36.60;102111.66;21075790;28;20048;-63
2023/01/30 03:00:38;;;;;;;2.10;1.95;;;;;;;21.71;36.77;102099.91;21075189;28;20047;-62
2023/01/30 03:10:48;;;;;;;3.27;2.50;;;;;;;21.71;36.53;102097.97;21082943;28;20376;-63
2023/01/30 03:20:50;;;;;;;2.60;2.30;;;;;;;21.70;36.52;102101.84;21090189;28;20567;-63
2023/01/30 03:30:51;;;;;;;2.80;2.17;;;;;;;21.56;36.59;102083.84;21089671;28;20105;-63
2023/01/30 03:40:53;;;;;;;2.13;1.92;;;;;;;21.54;36.69;102072.97;21089031;28;20529;-63
2023/01/30 03:50:57;;;;;;;2.33;2.13;;;;;;;21.59;36.63;102093.63;21088100;28;20044;-63
2023/01/30 04:01:01;;;;;;;2.33;2.13;;;;;;;21.58;36.40;102109.50;21071059;28;20043;-62
2023/01/30 04:11:02;;;;;;;2.90;2.22;;;;;;;21.57;36.44;102118.94;21108344;28;20125;-62
2023/01/30 04:21:04;;;;;;;2.55;2.35;;;;;;;21.61;36.79;102108.97;21070649;28;20069;-62
2023/01/30 04:31:09;;;;;;;2.67;2.42;;;;;;;21.65;36.92;102115.72;21054232;28;20090;-61
2023/01/30 04:41:10;;;;;;;6.35;2.58;;;;;;;21.72;36.77;102137.84;21025387;28;20048;-63
2023/01/30 04:51:12;;;;;;;3.15;2.75;;;;;;;21.77;36.59;102116.44;21082511;28;20074;-63
2023/01/30 05:01:23;;;;;;;4.53;2.75;;;;;;;21.83;36.79;102122.91;21085080;28;20042;-62
2023/01/30 05:11:28;;;;;;;2.58;2.13;;;;;;;21.88;36.77;102119.34;21128257;28;20040;-63
2023/01/30 05:21:32;;;;;;;3.15;2.22;;;;;;;21.92;36.70;102132.50;21086222;28;20048;-62
2023/01/30 05:31:37;;;;;;;3.38;2.35;;;;;;;21.87;37.00;102098.19;21067819;28;20040;-63
2023/01/30 05:41:39;;;;;;;3.13;2.70;;;;;;;21.99;36.85;102116.44;21079791;28;20065;-63
2023/01/30 05:51:40;;;;;;;3.88;2.10;;;;;;;22.02;36.77;102107.56;21063675;28;20048;-63
2023/01/30 06:01:44;;;;;;;3.15;2.65;;;;;;;22.03;36.91;102088.88;21074873;28;20040;-63
2023/01/30 06:11:51;;;;;;;2.70;2.40;;;;;;;22.05;36.92;102090.31;21077518;28;20156;-63
2023/01/30 06:21:55;;;;;;;2.67;2.28;;;;;;;22.08;36.86;102088.94;21076146;28;20449;-62
2023/01/30 06:31:56;;;;;;;3.50;2.20;;;;;;;22.08;36.95;102087.00;21076689;28;20028;-62
2023/01/30 06:41:58;;;;;;;2.95;2.65;;;;;;;22.10;37.10;102094.28;21043466;28;20097;-62
2023/01/30 06:51:59;;;;;;;4.30;2.35;;;;;;;22.10;37.42;102106.25;21087538;28;20049;-63
2023/01/30 07:02:06;;;;;;;4.13;2.83;;;;;;;22.10;37.48;102119.34;21066772;28;20067;-63
2023/01/30 07:12:07;;;;;;;3.45;2.80;;;;;;;22.10;37.57;102083.97;21036012;28;20544;-63
2023/01/30 07:22:09;;;;;;;3.53;2.80;;;;;;;22.10;37.76;102033.78;21045344;28;20508;-62
2023/01/30 07:32:15;;;;;;;3.15;2.85;;;;;;;22.06;38.05;102015.91;21062873;28;20040;-63
2023/01/30 07:42:16;;;;;;;3.50;2.80;;;;;;;22.06;37.76;102018.69;21080987;28;20494;-62
2023/01/30 07:52:18;;;;;;;3.50;2.67;;;;;;;22.08;38.30;102058.28;21033844;28;20036;-62
2023/01/30 08:02:22;;;;;;;2.58;2.20;;;;;;;22.07;38.17;102085.31;21056256;28;20040;-62
2023/01/30 08:12:26;;;;;;;3.75;3.00;;;;;;;22.06;38.36;102071.66;21061171;28;20101;-61
2023/01/30 08:22:33;;;;;;;2.75;2.22;;;;;;;21.99;38.19;102059.84;21057573;28;20037;-62
2023/01/30 08:32:35;;;;;;;2.97;2.67;;;;;;;22.03;38.59;102061.00;21054275;28;20526;-63
2023/01/30 08:42:36;;;;;;;2.90;2.47;;;;;;;22.01;38.20;102024.22;21015698;28;20488;-63
2023/01/30 08:52:37;;;;;;;3.00;2.65;;;;;;;;;;21015568;28;20040;-63
2023/01/30 09:02:38;;;;;;;3.63;2.50;;;;;;;21.90;38.02;102062.28;21050384;28;20135;-62
2023/01/30 09:12:40;;;;;;;3.95;2.65;;;;;;;21.98;38.18;102091.59;21071548;28;20440;-63
2023/01/30 09:22:43;;;;;;;2.72;2.53;;;;;;;21.95;38.03;102089.38;21044446;28;20573;-63
2023/01/30 09:32:45;;;;;;;3.00;2.67;;;;;;;21.71;38.43;102075.66;20996875;28;20450;-63
2023/01/30 09:42:55;;;;;;;2.55;2.35;;;;;;;21.92;38.20;102109.38;21012857;28;20047;-63
2023/01/30 09:53:02;;;;;;;3.22;2.63;;;;;;;21.87;38.47;102096.22;21029098;28;20138;-63
2023/01/30 10:03:12;;;;;;;3.42;2.85;;;;;;;21.86;38.34;102096.50;21033570;28;20560;-62
2023/01/30 10:13:44;;;;;;;3.30;2.95;;;;;;;21.80;38.15;102096.41;21023261;28;20032;-63
2023/01/30 10:24:10;;;;;;;3.22;2.55;;;;;;;21.80;38.11;102110.34;21035978;28;20048;-63
2023/01/30 10:34:24;;;;;;;4.03;2.63;;;;;;;21.78;38.28;102109.75;21039275;28;20050;-63
2023/01/30 10:44:25;;;;;;;3.50;2.60;;;;;;;21.79;38.15;102100.31;21011833;28;20044;-63
2023/01/30 10:54:32;;;;;;;2.95;2.65;;;;;;;21.78;37.77;102114.50;20994831;28;20033;-63
2023/01/30 11:04:42;;;;;;;2.88;2.58;;;;;;;21.76;38.14;102134.28;20994882;28;20033;-63
2023/01/30 11:14:59;;;;;;;3.10;2.70;;;;;;;21.74;37.80;102113.31;21035170;28;20079;-62
2023/01/30 11:25:10;;;;;;;2.85;2.60;;;;;;;21.72;38.06;102119.16;21021599;28;20074;-62
2023/01/30 11:35:14;;;;;;;3.20;2.85;;;;;;;21.69;37.84;102116.88;21020543;28;20430;-62
2023/01/30 11:45:18;;;;;;;3.85;3.40;;;;;;;21.68;38.00;102128.31;21024856;28;20093;-63
2023/01/30 11:55:23;;;;;;;3.60;2.97;;;;;;;21.55;37.88;102087.72;21040682;28;20051;-63
2023/01/30 12:05:27;;;;;;;3.20;2.80;;;;;;;21.63;37.99;102098.44;21078567;28;20032;-64
2023/01/30 12:15:31;;;;;;;3.50;3.08;;;;;;;21.62;38.18;102088.38;21055550;28;20393;-64
2023/01/30 12:25:40;;;;;;;5.47;2.85;;;;;;;21.59;37.84;102107.56;21072063;28;20070;-63
2023/01/30 12:35:44;;;;;;;7.72;2.97;;;;;;;21.61;37.62;102102.56;21070985;28;20051;-63
2023/01/30 12:46:02;;;;;;;3.25;2.75;;;;;;;21.58;37.67;102090.00;21130319;28;20047;-62
2023/01/30 12:56:28;;;;;;;3.50;3.03;;;;;;;21.66;37.46;102138.84;21156728;28;20036;-62
2023/01/30 13:06:45;;;;;;;4.55;3.25;;;;;;;21.63;37.33;102154.16;21166586;28;20070;-62
2023/01/30 13:17:08;;;;;;;4.05;3.17;;;;;;;21.80;37.63;102154.91;21165562;27;20039;-61
2023/01/30 13:27:21;;;;;;;4.20;3.45;;;;;;;21.85;37.64;102159.72;21164883;28;20385;-63
2023/01/30 13:37:22;;;;;;;6.90;3.47;;;;;;;21.91;37.72;102196.88;21164316;27;20039;-62
2023/01/30 13:47:49;;;;;;;3.85;3.40;;;;;;;21.90;37.71;102206.31;21163154;28;20043;-62
2023/01/30 13:58:14;;;;;;;3.72;3.40;;;;;;;21.91;37.64;102205.25;21161960;28;20124;-62
2023/01/30 14:08:25;;;;;;;6.05;3.75;;;;;;;21.98;37.29;102247.69;21162242;28;20047;-63
2023/01/30 14:18:32;;;;;;;5.25;3.53;;;;;;;22.04;37.51;102246.69;21161466;28;20035;-61
2023/01/30 14:28:46;;;;;;;4.60;4.20;;;;;;;22.03;37.26;102250.53;21161295;28;20101;-61
2023/01/30 14:39:15;;;;;;;5.43;4.03;;;;;;;22.05;37.41;102220.50;21160415;28;20089;-63
2023/01/30 14:49:26;;;;;;;5.17;3.47;;;;;;;22.08;37.30;102215.25;21159103;28;20044;-63
2023/01/30 14:59:40;;;;;;;3.78;3.45;;;;;;;22.10;37.00;102201.03;21159023;28;20047;-62
2023/01/30 15:09:50;;;;;;;5.70;4.22;;;;;;;22.14;37.12;102205.03;21173526;28;20088;-62
2023/01/30 15:20:07;;;;;;;4.75;3.92;;;;;;;22.15;37.14;102189.97;21175149;28;20092;-62
2023/01/30 15:30:31;;;;;;;4.45;3.65;;;;;;;22.12;37.41;102170.13;21174120;28;20040;-61
2023/01/30 15:40:36;;;;;;;5.68;4.60;;;;;;;22.17;37.11;102167.41;21173784;28;20089;-62
2023/01/30 15:50:38;;;;;;;6.25;4.57;;;;;;;22.11;36.83;102158.13;21172901;27;20073;-63
2023/01/30 16:00:49;;;;;;;4.55;3.80;;;;;;;21.89;37.21;102104.31;21172269;28;20028;-62
2023/01/30 16:10:53;;;;;;;4.40;3.90;;;;;;;22.19;36.67;102143.75;21171099;28;20035;-63
2023/01/30 16:20:58;;;;;;;5.68;4.10;;;;;;;22.21;36.66;102130.38;21170131;28;20065;-61
2023/01/30 16:31:03;;;;;;;4.55;4.13;;;;;;;22.17;36.91;102122.81;21169681;28;20036;-61
2023/01/30 16:41:05;;;;;;;6.65;4.57;;;;;;;22.21;36.94;102122.03;21169178;27;20433;-62
2023/01/30 16:51:27;;;;;;;5.28;4.22;;;;;;;22.20;36.71;102095.25;21168157;28;20047;-61
2023/01/30 17:01:42;;;;;;;4.60;3.83;;;;;;;22.16;37.04;102077.34;21167052;28;20503;-62
2023/01/30 17:11:43;;;;;;;4.55;4.10;;;;;;;22.15;36.74;102047.81;21166505;27;20043;-62
2023/01/30 17:21:48;;;;;;;4.90;3.88;;;;;;;22.14;36.65;102022.97;21165117;28;20040;-62
2023/01/30 17:31:51;;;;;;;4.85;4.20;;;;;;;22.12;36.90;101997.31;21164356;28;20104;-62
2023/01/30 17:41:52;;;;;;;4.57;4.13;;;;;;;22.02;36.68;101975.72;21163595;28;20047;-62
2023/01/30 17:52:03;;;;;;;4.85;4.00;;;;;;;22.12;36.42;101964.69;21162340;28;20097;-62
2023/01/30 18:02:08;;;;;;;5.43;4.43;;;;;;;22.11;36.53;101956.56;21162432;28;20051;-62
2023/01/30 18:12:10;;;;;;;3.88;3.45;;;;;;;21.99;36.59;101926.94;21161858;28;20035;-62
2023/01/30 18:22:11;;;;;;;3.63;3.33;;;;;;;22.08;36.59;101924.47;21161202;28;20533;-61
2023/01/30 18:32:12;;;;;;;5.10;4.20;;;;;;;22.06;36.75;101927.53;21160868;28;20443;-62
2023/01/30 18:42:19;;;;;;;4.03;3.63;;;;;;;22.04;36.34;101915.00;21180197;27;20048;-62
2023/01/30 18:52:21;;;;;;;3.92;3.40;;;;;;;22.02;36.29;101889.31;21188324;27;20035;-62
2023/01/30 19:02:22;;;;;;;4.15;3.63;;;;;;;22.00;36.28;101866.44;21187768;27;20043;-62
2023/01/30 19:22:48;;;;;;;3.75;3.33;;;;;;;21.91;36.06;101834.59;21189401;28;20040;-61
2023/01/30 19:32:50;;;;;;;3.67;3.38;;;;;;;21.95;36.27;101841.34;21186944;27;20417;-62
2023/01/30 19:42:52;;;;;;;4.07;3.28;;;;;;;21.86;36.24;101826.22;21186134;27;20043;-62
2023/01/30 19:52:53;;;;;;;3.55;3.25;;;;;;;21.69;36.40;101795.69;21177683;28;20137;-61
2023/01/30 20:02:56;;;;;;;2.58;2.38;;;;;;;21.77;36.03;101801.63;21171733;28;20035;-62
2023/01/30 20:12:57;;;;;;;3.28;2.70;;;;;;;21.88;36.25;101807.25;21171690;28;20027;-62
2023/01/30 20:22:59;;;;;;;3.10;2.80;;;;;;;21.87;36.15;101797.25;21170732;28;20043;-61
2023/01/30 20:33:00;;;;;;;2.67;2.47;;;;;;;21.85;36.04;101780.75;21170202;28;20028;-62
2023/01/30 20:43:04;;;;;;;2.72;2.50;;;;;;;21.66;36.26;101743.28;21169303;28;20372;-62
2023/01/30 20:53:06;;;;;;;3.15;2.78;;;;;;;21.80;36.04;101750.91;21168624;28;20039;-61
2023/01/30 21:03:10;;;;;;;2.40;2.20;;;;;;;21.78;36.36;101753.16;21166573;28;20030;-61
2023/01/30 21:13:13;;;;;;;2.53;2.17;;;;;;;21.76;36.42;101763.72;21166604;27;20085;-62
2023/01/30 21:23:17;;;;;;;2.70;2.45;;;;;;;21.69;36.34;101777.03;21165387;28;20051;-62
2023/01/30 21:33:21;;;;;;;2.50;2.30;;;;;;;21.72;36.28;101798.78;21164304;28;20031;-62
2023/01/30 21:43:22;;;;;;;2.10;1.90;;;;;;;21.70;36.59;101801.00;21163698;28;20085;-62
2023/01/30 21:53:24;;;;;;;2.78;2.20;;;;;;;21.66;36.23;101783.13;21162866;28;20471;-63
2023/01/30 22:03:26;;;;;;;2.47;2.25;;;;;;;21.64;36.65;101796.50;21162124;28;20440;-62
2023/01/30 22:13:31;;;;;;;3.03;2.28;;;;;;;21.61;36.52;101797.00;21160833;28;20040;-63
2023/01/30 22:23:40;;;;;;;2.30;2.10;;;;;;;21.62;36.73;101832.09;21160701;28;20035;-62
2023/01/30 22:33:46;;;;;;;2.28;2.08;;;;;;;21.59;36.36;101852.16;21160282;28;20051;-62
2023/01/30 22:43:50;;;;;;;2.72;2.00;;;;;;;21.55;36.32;101857.41;21090735;28;20051;-62
2023/01/30 22:53:54;;;;;;;2.33;2.13;;;;;;;21.39;36.88;101849.13;21048093;28;20383;-62
2023/01/30 23:04:02;;;;;;;8.60;3.20;;;;;;;21.51;36.95;101902.75;21051696;28;20048;-63
2023/01/30 23:14:14;;;;;;;3.33;2.60;;;;;;;21.44;36.93;101896.53;21005192;28;20089;-62
2023/01/30 23:24:19;;;;;;;3.83;3.10;;;;;;;21.34;36.78;101904.78;21066174;28;20399;-62
2023/01/30 23:34:20;;;;;;;2.70;2.38;;;;;;;21.48;36.97;101920.81;21011798;28;20110;-62
2023/01/30 23:44:24;;;;;;;2.85;2.33;;;;;;;21.47;36.86;101923.88;21034450;28;20070;-61
2023/01/30 23:54:25;;;;;;;2.90;2.58;;;;;;;21.44;37.14;101897.41;21039343;28;20506;-62
